To NAV CANADA Home Page Login to a new session Search on AWWS site Feedback and Comments Disclaimer Vers la page française équivalente Tips FAQ What's new on the site To the Forecasts and Observations / NOTAM section To "File a Flight Plan" website Publications and other links Update of the User's profile FIC Telephone Numbers My Weather Data Folder Route Weather Data Regional Weather Data Local Weather Data To the Forecasts and Observations / NOTAM section
Request Generated 03/05/2015 at 14:27:52 UTC . Weather information available at that time is displayed.

METAR/TAF

CARTWRIGHT/NL    

METAR CWCA 051400Z 23007KT 15SM FEW080 BKN200 M15/M19 A2924 RMK AS1CS3 SLP903=
METAR CWCA 051300Z 23008KT 15SM FEW200 M17/M20 A2925 RMK CS1 SLP906=
METAR CWCA 051200Z 20005KT 15SM FEW080 SCT200 M18/M21 A2924 RMK AS1CS2 SLP903=

TAF CYCA 051341Z 0514/0602 ADVISORY OFFSITE 23008KT P6SM FEW200
FM051600 30012KT P6SM SCT030 TEMPO 0516/0602 5SM -SN BKN030
RMK NXT FCST BY 052000Z=
Your time UTC time
Weather data provided by Environment Canada and NAV CANADA